sensor_id;sensor_type;location;lat;lon;timestamp;pressure;altitude;pressure_sealevel;temperature;humidity
58843;BME280;44614;54.356;10.100;2023-05-12T00:01:42;101626.66;;;12.41;87.25
58843;BME280;44614;54.356;10.100;2023-05-12T00:04:07;101643.59;;;12.52;87.47
58843;BME280;44614;54.356;10.100;2023-05-12T00:06:33;101652.47;;;12.54;87.33
58843;BME280;44614;54.356;10.100;2023-05-12T00:08:58;101643.19;;;12.48;87.40
58843;BME280;44614;54.356;10.100;2023-05-12T00:11:24;101640.63;;;12.47;87.54
58843;BME280;44614;54.356;10.100;2023-05-12T00:13:49;101655.66;;;12.51;87.50
58843;BME280;44614;54.356;10.100;2023-05-12T00:16:15;101645.06;;;12.48;87.66
58843;BME280;44614;54.356;10.100;2023-05-12T00:18:43;101625.84;;;12.34;87.45
58843;BME280;44614;54.356;10.100;2023-05-12T00:21:08;101642.97;;;12.50;87.61
58843;BME280;44614;54.356;10.100;2023-05-12T00:23:33;101638.50;;;12.49;87.29
58843;BME280;44614;54.356;10.100;2023-05-12T00:25:59;101646.13;;;12.47;87.58
58843;BME280;44614;54.356;10.100;2023-05-12T00:28:24;101623.50;;;12.31;87.76
58843;BME280;44614;54.356;10.100;2023-05-12T00:30:49;101624.16;;;12.27;87.60
58843;BME280;44614;54.356;10.100;2023-05-12T00:33:15;101615.66;;;12.28;87.36
58843;BME280;44614;54.356;10.100;2023-05-12T00:35:41;101656.09;;;12.48;87.18
58843;BME280;44614;54.356;10.100;2023-05-12T00:38:09;101641.72;;;12.39;87.19
58843;BME280;44614;54.356;10.100;2023-05-12T00:40:34;101658.22;;;12.46;87.50
58843;BME280;44614;54.356;10.100;2023-05-12T00:43:02;101660.34;;;12.43;87.15
58843;BME280;44614;54.356;10.100;2023-05-12T00:45:28;101661.22;;;12.44;87.33
58843;BME280;44614;54.356;10.100;2023-05-12T00:47:54;101659.72;;;12.41;87.30
58843;BME280;44614;54.356;10.100;2023-05-12T00:50:20;101656.53;;;12.44;87.09
58843;BME280;44614;54.356;10.100;2023-05-12T00:52:46;101650.63;;;12.41;87.10
58843;BME280;44614;54.356;10.100;2023-05-12T00:55:12;101646.38;;;12.38;86.94
58843;BME280;44614;54.356;10.100;2023-05-12T00:57:37;101647.88;;;12.34;87.16
58843;BME280;44614;54.356;10.100;2023-05-12T01:00:04;101655.28;;;12.40;86.93
58843;BME280;44614;54.356;10.100;2023-05-12T01:02:33;101641.31;;;12.29;86.62
58843;BME280;44614;54.356;10.100;2023-05-12T01:04:59;101653.59;;;12.33;86.55
58843;BME280;44614;54.356;10.100;2023-05-12T01:07:25;101662.91;;;12.38;86.47
58843;BME280;44614;54.356;10.100;2023-05-12T01:09:54;101648.94;;;12.20;86.37
58843;BME280;44614;54.356;10.100;2023-05-12T01:12:21;101666.72;;;12.37;86.31
58843;BME280;44614;54.356;10.100;2023-05-12T01:14:47;101666.31;;;12.34;86.34
58843;BME280;44614;54.356;10.100;2023-05-12T01:17:13;101666.06;;;12.35;86.11
58843;BME280;44614;54.356;10.100;2023-05-12T01:19:52;101670.31;;;12.31;86.20
58843;BME280;44614;54.356;10.100;2023-05-12T01:22:18;101672.00;;;12.32;86.13
58843;BME280;44614;54.356;10.100;2023-05-12T01:24:47;101633.06;;;12.09;86.13
58843;BME280;44614;54.356;10.100;2023-05-12T01:27:15;101676.91;;;12.30;86.03
58843;BME280;44614;54.356;10.100;2023-05-12T01:29:43;101649.81;;;12.14;86.09
58843;BME280;44614;54.356;10.100;2023-05-12T01:32:09;101628.22;;;11.98;85.97
58843;BME280;44614;54.356;10.100;2023-05-12T01:34:35;101680.31;;;12.26;86.15
58843;BME280;44614;54.356;10.100;2023-05-12T01:37:00;101671.81;;;12.20;86.26
58843;BME280;44614;54.356;10.100;2023-05-12T01:39:26;101679.66;;;12.17;86.42
58843;BME280;44614;54.356;10.100;2023-05-12T01:41:51;101691.75;;;12.16;86.51
58843;BME280;44614;54.356;10.100;2023-05-12T01:44:16;101615.50;;;11.70;86.05
58843;BME280;44614;54.356;10.100;2023-05-12T01:46:41;101694.06;;;12.19;86.24
58843;BME280;44614;54.356;10.100;2023-05-12T01:49:07;101687.72;;;12.18;86.09
58843;BME280;44614;54.356;10.100;2023-05-12T01:51:32;101670.34;;;12.05;86.38
58843;BME280;44614;54.356;10.100;2023-05-12T01:53:57;101690.66;;;12.17;86.44
58843;BME280;44614;54.356;10.100;2023-05-12T01:56:23;101687.09;;;12.10;86.56
58843;BME280;44614;54.356;10.100;2023-05-12T01:58:48;101690.91;;;12.15;86.21
58843;BME280;44614;54.356;10.100;2023-05-12T02:01:14;101697.25;;;12.16;86.58
58843;BME280;44614;54.356;10.100;2023-05-12T02:03:39;101699.56;;;12.12;86.46
58843;BME280;44614;54.356;10.100;2023-05-12T02:06:05;101709.56;;;12.13;86.39
58843;BME280;44614;54.356;10.100;2023-05-12T02:08:30;101700.44;;;12.06;86.69
58843;BME280;44614;54.356;10.100;2023-05-12T02:11:07;101703.63;;;12.10;86.68
58843;BME280;44614;54.356;10.100;2023-05-12T02:13:33;101702.34;;;12.06;86.55
58843;BME280;44614;54.356;10.100;2023-05-12T02:15:59;101693.88;;;12.01;86.58
58843;BME280;44614;54.356;10.100;2023-05-12T02:18:24;101707.22;;;12.04;86.52
58843;BME280;44614;54.356;10.100;2023-05-12T02:20:50;101708.28;;;12.03;86.82
58843;BME280;44614;54.356;10.100;2023-05-12T02:23:15;101712.50;;;12.05;87.00
58843;BME280;44614;54.356;10.100;2023-05-12T02:25:40;101706.97;;;12.05;86.73
58843;BME280;44614;54.356;10.100;2023-05-12T02:28:06;101680.72;;;11.89;86.96
58843;BME280;44614;54.356;10.100;2023-05-12T02:30:37;101705.72;;;12.01;86.76
58843;BME280;44614;54.356;10.100;2023-05-12T02:33:03;101706.97;;;12.05;86.55
58843;BME280;44614;54.356;10.100;2023-05-12T02:35:30;101712.50;;;12.05;86.65
58843;BME280;44614;54.356;10.100;2023-05-12T02:37:55;101713.78;;;12.03;86.48
58843;BME280;44614;54.356;10.100;2023-05-12T02:40:21;101698.09;;;11.97;86.74
58843;BME280;44614;54.356;10.100;2023-05-12T02:42:46;101716.53;;;12.03;86.92
58843;BME280;44614;54.356;10.100;2023-05-12T02:45:12;101716.53;;;12.03;86.91
58843;BME280;44614;54.356;10.100;2023-05-12T02:47:37;101713.34;;;11.99;87.13
58843;BME280;44614;54.356;10.100;2023-05-12T02:50:03;101712.94;;;12.02;86.96
58843;BME280;44614;54.356;10.100;2023-05-12T02:52:28;101703.59;;;11.97;86.94
58843;BME280;44614;54.356;10.100;2023-05-12T02:54:54;101713.13;;;12.01;86.96
58843;BME280;44614;54.356;10.100;2023-05-12T02:57:20;101712.94;;;12.02;86.93
58843;BME280;44614;54.356;10.100;2023-05-12T02:59:45;101707.19;;;11.97;87.20
58843;BME280;44614;54.356;10.100;2023-05-12T03:02:11;101716.53;;;11.96;87.23
58843;BME280;44614;54.356;10.100;2023-05-12T03:04:36;101704.66;;;11.89;87.30
58843;BME280;44614;54.356;10.100;2023-05-12T03:07:02;101721.63;;;11.99;87.22
58843;BME280;44614;54.356;10.100;2023-05-12T03:09:28;101674.97;;;11.71;87.06
58843;BME280;44614;54.356;10.100;2023-05-12T03:11:53;101710.38;;;11.94;87.14
58843;BME280;44614;54.356;10.100;2023-05-12T03:14:18;101721.81;;;11.98;87.45
58843;BME280;44614;54.356;10.100;2023-05-12T03:16:43;101715.03;;;11.93;87.48
58843;BME280;44614;54.356;10.100;2023-05-12T03:19:09;101717.78;;;11.93;87.31
58843;BME280;44614;54.356;10.100;2023-05-12T03:21:34;101653.38;;;11.41;87.31
58843;BME280;44614;54.356;10.100;2023-05-12T03:23:59;101730.06;;;11.98;87.21
58843;BME280;44614;54.356;10.100;2023-05-12T03:26:25;101727.31;;;11.98;87.30
58843;BME280;44614;54.356;10.100;2023-05-12T03:28:50;101721.81;;;11.91;87.10
58843;BME280;44614;54.356;10.100;2023-05-12T03:31:16;101710.38;;;11.87;87.52
58843;BME280;44614;54.356;10.100;2023-05-12T03:33:41;101733.25;;;11.94;87.32
58843;BME280;44614;54.356;10.100;2023-05-12T03:36:07;101720.09;;;11.90;87.39
58843;BME280;44614;54.356;10.100;2023-05-12T03:38:33;101733.03;;;11.96;87.69
58843;BME280;44614;54.356;10.100;2023-05-12T03:41:05;101709.28;;;11.82;87.26
58843;BME280;44614;54.356;10.100;2023-05-12T03:43:31;101730.06;;;11.98;87.21
58843;BME280;44614;54.356;10.100;2023-05-12T03:45:57;101727.31;;;11.98;87.63
58843;BME280;44614;54.356;10.100;2023-05-12T03:48:22;101700.59;;;11.78;87.70
58843;BME280;44614;54.356;10.100;2023-05-12T03:50:47;101735.56;;;11.98;87.84
58843;BME280;44614;54.356;10.100;2023-05-12T03:53:13;101697.44;;;11.68;87.78
58843;BME280;44614;54.356;10.100;2023-05-12T03:55:39;101739.19;;;11.98;87.84
58843;BME280;44614;54.356;10.100;2023-05-12T03:58:08;101723.28;;;11.93;87.62
58843;BME280;44614;54.356;10.100;2023-05-12T04:00:33;101739.59;;;12.02;87.56
58843;BME280;44614;54.356;10.100;2023-05-12T04:02:59;101720.09;;;11.90;87.65
58843;BME280;44614;54.356;10.100;2023-05-12T04:05:24;101730.72;;;11.93;88.03
58843;BME280;44614;54.356;10.100;2023-05-12T04:07:50;101748.91;;;12.01;88.10
58843;BME280;44614;54.356;10.100;2023-05-12T04:10:15;101744.06;;;12.03;87.94
58843;BME280;44614;54.356;10.100;2023-05-12T04:12:40;101731.97;;;11.97;87.73
58843;BME280;44614;54.356;10.100;2023-05-12T04:15:06;101749.56;;;12.09;87.60
58843;BME280;44614;54.356;10.100;2023-05-12T04:17:32;101752.72;;;12.13;87.95
58843;BME280;44614;54.356;10.100;2023-05-12T04:19:57;101775.22;;;12.10;87.77
58843;BME280;44614;54.356;10.100;2023-05-12T04:22:23;101754.66;;;12.19;87.67
58843;BME280;44614;54.356;10.100;2023-05-12T04:24:48;101747.66;;;12.16;87.82
58843;BME280;44614;54.356;10.100;2023-05-12T04:27:14;101759.94;;;12.27;87.56
58843;BME280;44614;54.356;10.100;2023-05-12T04:29:39;101759.53;;;12.30;87.61
58843;BME280;44614;54.356;10.100;2023-05-12T04:32:05;101739.19;;;12.18;87.50
58843;BME280;44614;54.356;10.100;2023-05-12T04:34:31;101751.88;;;12.32;87.10
58843;BME280;44614;54.356;10.100;2023-05-12T04:36:56;101767.16;;;12.41;87.05
58843;BME280;44614;54.356;10.100;2023-05-12T04:39:24;101773.50;;;12.49;86.62
58843;BME280;44614;54.356;10.100;2023-05-12T04:41:50;101766.69;;;12.51;86.27
58843;BME280;44614;54.356;10.100;2023-05-12T04:44:15;101771.38;;;12.57;86.03
58843;BME280;44614;54.356;10.100;2023-05-12T04:46:41;101779.84;;;12.69;86.25
58843;BME280;44614;54.356;10.100;2023-05-12T04:49:07;101782.34;;;12.77;85.71
58843;BME280;44614;54.356;10.100;2023-05-12T04:51:33;101779.81;;;12.82;85.75
58843;BME280;44614;54.356;10.100;2023-05-12T04:53:58;101781.94;;;12.87;85.10
58843;BME280;44614;54.356;10.100;2023-05-12T04:56:23;101782.97;;;12.92;84.93
58843;BME280;44614;54.356;10.100;2023-05-12T04:58:49;101780.44;;;12.98;84.96
58843;BME280;44614;54.356;10.100;2023-05-12T05:01:14;101797.16;;;13.09;84.87
58843;BME280;44614;54.356;10.100;2023-05-12T05:03:40;101783.97;;;13.05;84.63
58843;BME280;44614;54.356;10.100;2023-05-12T05:06:05;101726.19;;;12.72;84.34
58843;BME280;44614;54.356;10.100;2023-05-12T05:08:30;101732.75;;;12.77;84.00
58843;BME280;44614;54.356;10.100;2023-05-12T05:10:57;101810.72;;;13.24;84.03
58843;BME280;44614;54.356;10.100;2023-05-12T05:13:23;101797.97;;;13.23;83.83
58843;BME280;44614;54.356;10.100;2023-05-12T05:15:52;101791.78;;;13.28;83.08
58843;BME280;44614;54.356;10.100;2023-05-12T05:18:18;101796.22;;;13.35;82.96
58843;BME280;44614;54.356;10.100;2023-05-12T05:20:43;101817.38;;;13.55;82.57
58843;BME280;44614;54.356;10.100;2023-05-12T05:23:10;101803.75;;;13.60;82.45
58843;BME280;44614;54.356;10.100;2023-05-12T05:25:35;101820.22;;;13.80;81.97
58843;BME280;44614;54.356;10.100;2023-05-12T05:28:01;101829.06;;;13.95;81.41
58843;BME280;44614;54.356;10.100;2023-05-12T05:30:26;101821.59;;;13.96;81.36
58843;BME280;44614;54.356;10.100;2023-05-12T05:32:52;101826.25;;;14.02;81.03
58843;BME280;44614;54.356;10.100;2023-05-12T05:35:17;101822.41;;;14.03;80.88
58843;BME280;44614;54.356;10.100;2023-05-12T05:37:43;101844.25;;;14.11;80.79
58843;BME280;44614;54.356;10.100;2023-05-12T05:40:08;101829.06;;;13.95;80.24
58843;BME280;44614;54.356;10.100;2023-05-12T05:42:34;101834.00;;;13.86;80.02
58843;BME280;44614;54.356;10.100;2023-05-12T05:44:59;101843.28;;;13.92;80.59
58843;BME280;44614;54.356;10.100;2023-05-12T05:47:24;101837.81;;;13.85;80.69
58843;BME280;44614;54.356;10.100;2023-05-12T05:49:50;101827.06;;;13.71;80.62
58843;BME280;44614;54.356;10.100;2023-05-12T05:52:15;101845.28;;;13.78;79.28
58843;BME280;44614;54.356;10.100;2023-05-12T05:54:40;101834.69;;;13.75;80.31
58843;BME280;44614;54.356;10.100;2023-05-12T05:57:06;101849.88;;;13.91;80.17
58843;BME280;44614;54.356;10.100;2023-05-12T05:59:31;101847.38;;;13.89;79.74
58843;BME280;44614;54.356;10.100;2023-05-12T06:01:57;101853.59;;;14.10;79.33
58843;BME280;44614;54.356;10.100;2023-05-12T06:04:22;101852.41;;;14.31;78.73
58843;BME280;44614;54.356;10.100;2023-05-12T06:06:48;101866.38;;;14.43;78.17
58843;BME280;44614;54.356;10.100;2023-05-12T06:09:13;101856.59;;;14.40;77.82
58843;BME280;44614;54.356;10.100;2023-05-12T06:11:40;101858.25;;;14.48;78.02
58843;BME280;44614;54.356;10.100;2023-05-12T06:14:05;101861.44;;;14.51;76.07
58843;BME280;44614;54.356;10.100;2023-05-12T06:16:30;101865.28;;;14.50;77.04
58843;BME280;44614;54.356;10.100;2023-05-12T06:18:55;101856.09;;;14.50;77.07
58843;BME280;44614;54.356;10.100;2023-05-12T06:21:21;101872.59;;;14.63;77.31
58843;BME280;44614;54.356;10.100;2023-05-12T06:23:46;101873.00;;;14.67;77.19
58843;BME280;44614;54.356;10.100;2023-05-12T06:26:12;101861.38;;;14.58;76.63
58843;BME280;44614;54.356;10.100;2023-05-12T06:28:37;101881.28;;;14.67;76.88
58843;BME280;44614;54.356;10.100;2023-05-12T06:31:06;101880.63;;;14.71;77.05
58843;BME280;44614;54.356;10.100;2023-05-12T06:33:32;101891.69;;;14.71;76.29
58843;BME280;44614;54.356;10.100;2023-05-12T06:35:58;101879.09;;;14.75;76.41
58843;BME280;44614;54.356;10.100;2023-05-12T06:38:23;101871.31;;;14.66;76.12
58843;BME280;44614;54.356;10.100;2023-05-12T06:40:48;101887.19;;;14.77;76.90
58843;BME280;44614;54.356;10.100;2023-05-12T06:43:14;101889.56;;;14.92;76.81
58843;BME280;44614;54.356;10.100;2023-05-12T06:45:39;101879.41;;;15.10;74.76
58843;BME280;44614;54.356;10.100;2023-05-12T06:48:05;101890.56;;;15.22;74.94
58843;BME280;44614;54.356;10.100;2023-05-12T06:50:30;101879.03;;;15.25;75.09
58843;BME280;44614;54.356;10.100;2023-05-12T06:52:56;101870.72;;;15.25;75.08
58843;BME280;44614;54.356;10.100;2023-05-12T06:55:21;101899.34;;;15.38;74.67
58843;BME280;44614;54.356;10.100;2023-05-12T06:57:47;101889.81;;;15.33;75.19
58843;BME280;44614;54.356;10.100;2023-05-12T07:00:13;101875.38;;;15.31;74.30
58843;BME280;44614;54.356;10.100;2023-05-12T07:02:38;101882.88;;;15.24;74.95
58843;BME280;44614;54.356;10.100;2023-05-12T07:05:04;101903.44;;;15.35;74.87
58843;BME280;44614;54.356;10.100;2023-05-12T07:07:29;101895.34;;;15.52;74.48
58843;BME280;44614;54.356;10.100;2023-05-12T07:09:55;101885.53;;;15.74;73.36
58843;BME280;44614;54.356;10.100;2023-05-12T07:12:21;101902.06;;;15.99;73.37
58843;BME280;44614;54.356;10.100;2023-05-12T07:14:46;101901.56;;;16.02;71.72
58843;BME280;44614;54.356;10.100;2023-05-12T07:17:12;101896.13;;;15.96;72.34
58843;BME280;44614;54.356;10.100;2023-05-12T07:19:37;101902.31;;;16.40;71.77
58843;BME280;44614;54.356;10.100;2023-05-12T07:22:04;101900.56;;;16.57;71.74
58843;BME280;44614;54.356;10.100;2023-05-12T07:24:30;101924.16;;;16.48;71.45
58843;BME280;44614;54.356;10.100;2023-05-12T07:26:55;101904.75;;;16.48;69.94
58843;BME280;44614;54.356;10.100;2023-05-12T07:29:21;101906.91;;;16.76;69.18
58843;BME280;44614;54.356;10.100;2023-05-12T07:31:46;101907.75;;;16.76;69.66
58843;BME280;44614;54.356;10.100;2023-05-12T07:34:12;101894.81;;;16.70;70.57
58843;BME280;44614;54.356;10.100;2023-05-12T07:36:37;101897.56;;;16.70;69.99
58843;BME280;44614;54.356;10.100;2023-05-12T07:39:02;101906.47;;;16.91;69.22
58843;BME280;44614;54.356;10.100;2023-05-12T07:41:28;101900.13;;;16.72;69.33
58843;BME280;44614;54.356;10.100;2023-05-12T07:43:53;101908.53;;;17.07;69.32
58843;BME280;44614;54.356;10.100;2023-05-12T07:46:18;101888.13;;;17.37;68.88
58843;BME280;44614;54.356;10.100;2023-05-12T07:48:44;101902.50;;;17.97;68.47
58843;BME280;44614;54.356;10.100;2023-05-12T07:51:10;101909.88;;;18.49;66.89
58843;BME280;44614;54.356;10.100;2023-05-12T07:53:35;101909.63;;;18.79;66.38
58843;BME280;44614;54.356;10.100;2023-05-12T07:56:01;101919.56;;;19.26;66.11
58843;BME280;44614;54.356;10.100;2023-05-12T07:58:26;101913.69;;;19.44;65.31
58843;BME280;44614;54.356;10.100;2023-05-12T08:00:52;101904.66;;;19.54;65.98
58843;BME280;44614;54.356;10.100;2023-05-12T08:03:18;101909.19;;;19.60;65.38
58843;BME280;44614;54.356;10.100;2023-05-12T08:05:44;101919.31;;;19.88;66.11
58843;BME280;44614;54.356;10.100;2023-05-12T08:08:10;101910.16;;;20.14;64.25
58843;BME280;44614;54.356;10.100;2023-05-12T08:10:41;101921.56;;;20.35;65.63
58843;BME280;44614;54.356;10.100;2023-05-12T08:13:06;101924.72;;;20.43;64.83
58843;BME280;44614;54.356;10.100;2023-05-12T08:15:31;101909.34;;;20.41;64.46
58843;BME280;44614;54.356;10.100;2023-05-12T08:17:57;101923.88;;;20.43;63.60
58843;BME280;44614;54.356;10.100;2023-05-12T08:20:22;101931.97;;;20.44;65.45
58843;BME280;44614;54.356;10.100;2023-05-12T08:22:47;101929.28;;;20.50;63.84
58843;BME280;44614;54.356;10.100;2023-05-12T08:25:14;101936.72;;;20.44;65.35
58843;BME280;44614;54.356;10.100;2023-05-12T08:27:40;101918.66;;;20.25;64.64
58843;BME280;44614;54.356;10.100;2023-05-12T08:30:06;101935.84;;;20.38;65.27
58843;BME280;44614;54.356;10.100;2023-05-12T08:32:31;101924.28;;;20.52;64.67
58843;BME280;44614;54.356;10.100;2023-05-12T08:34:57;101941.97;;;20.62;63.74
58843;BME280;44614;54.356;10.100;2023-05-12T08:37:22;101937.06;;;20.75;64.00
58843;BME280;44614;54.356;10.100;2023-05-12T08:39:47;101939.88;;;21.07;62.71
58843;BME280;44614;54.356;10.100;2023-05-12T08:42:36;101945.28;;;21.24;59.72
58843;BME280;44614;54.356;10.100;2023-05-12T08:45:06;101931.53;;;21.49;62.35
58843;BME280;44614;54.356;10.100;2023-05-12T08:47:32;101938.13;;;21.80;62.32
58843;BME280;44614;54.356;10.100;2023-05-12T08:50:02;101929.16;;;21.78;58.88
58843;BME280;44614;54.356;10.100;2023-05-12T08:52:32;101937.88;;;21.87;61.91
58843;BME280;44614;54.356;10.100;2023-05-12T08:54:58;101937.47;;;22.21;60.47
58843;BME280;44614;54.356;10.100;2023-05-12T08:57:23;101938.94;;;22.33;48.96
58843;BME280;44614;54.356;10.100;2023-05-12T08:59:53;101942.56;;;22.34;60.50
58843;BME280;44614;54.356;10.100;2023-05-12T09:02:21;101942.03;;;22.47;60.04
58843;BME280;44614;54.356;10.100;2023-05-12T09:04:48;101930.84;;;22.52;59.62
58843;BME280;44614;54.356;10.100;2023-05-12T09:07:13;101951.75;;;22.19;43.81
58843;BME280;44614;54.356;10.100;2023-05-12T09:09:42;101948.00;;;21.46;55.10
58843;BME280;44614;54.356;10.100;2023-05-12T09:12:11;101949.59;;;21.04;55.89
58843;BME280;44614;54.356;10.100;2023-05-12T09:14:37;101954.31;;;20.99;55.70
58843;BME280;44614;54.356;10.100;2023-05-12T09:17:05;101952.09;;;21.33;59.27
58843;BME280;44614;54.356;10.100;2023-05-12T09:19:31;101951.66;;;21.99;58.44
58843;BME280;44614;54.356;10.100;2023-05-12T09:21:57;101939.72;;;22.13;56.63
58843;BME280;44614;54.356;10.100;2023-05-12T09:24:38;101954.16;;;21.95;47.77
58843;BME280;44614;54.356;10.100;2023-05-12T09:27:04;101959.53;;;21.59;53.18
58843;BME280;44614;54.356;10.100;2023-05-12T09:29:31;101965.28;;;21.42;56.09
58843;BME280;44614;54.356;10.100;2023-05-12T09:31:59;101963.66;;;21.14;51.60
58843;BME280;44614;54.356;10.100;2023-05-12T09:34:32;101959.03;;;20.98;54.53
58843;BME280;44614;54.356;10.100;2023-05-12T09:37:02;101964.09;;;21.01;54.44
58843;BME280;44614;54.356;10.100;2023-05-12T09:39:28;101966.09;;;21.06;52.20
58843;BME280;44614;54.356;10.100;2023-05-12T09:41:54;101966.72;;;21.13;50.82
58843;BME280;44614;54.356;10.100;2023-05-12T09:44:20;101962.34;;;21.22;53.06
58843;BME280;44614;54.356;10.100;2023-05-12T09:46:45;101961.38;;;21.06;38.75
58843;BME280;44614;54.356;10.100;2023-05-12T09:49:11;101958.13;;;21.25;51.87
58843;BME280;44614;54.356;10.100;2023-05-12T09:51:39;101938.56;;;21.20;48.38
58843;BME280;44614;54.356;10.100;2023-05-12T09:54:04;101966.19;;;21.16;48.67
58843;BME280;44614;54.356;10.100;2023-05-12T09:56:29;101969.88;;;21.22;47.72
58843;BME280;44614;54.356;10.100;2023-05-12T09:59:03;101951.22;;;21.32;49.17
58843;BME280;44614;54.356;10.100;2023-05-12T10:01:29;101965.28;;;21.85;48.83
58843;BME280;44614;54.356;10.100;2023-05-12T10:03:56;101958.81;;;22.37;45.84
58843;BME280;44614;54.356;10.100;2023-05-12T10:06:25;101968.28;;;22.26;40.10
58843;BME280;44614;54.356;10.100;2023-05-12T10:09:13;101962.56;;;22.05;39.75
58843;BME280;44614;54.356;10.100;2023-05-12T10:11:41;101970.72;;;22.12;39.28
58843;BME280;44614;54.356;10.100;2023-05-12T10:14:07;101969.72;;;21.81;45.57
58843;BME280;44614;54.356;10.100;2023-05-12T10:16:34;101977.88;;;21.93;45.67
58843;BME280;44614;54.356;10.100;2023-05-12T10:19:00;101973.09;;;21.83;34.28
58843;BME280;44614;54.356;10.100;2023-05-12T10:21:26;101966.75;;;21.50;38.45
58843;BME280;44614;54.356;10.100;2023-05-12T10:23:53;101974.00;;;21.51;44.97
58843;BME280;44614;54.356;10.100;2023-05-12T10:26:18;101967.53;;;21.93;43.28
58843;BME280;44614;54.356;10.100;2023-05-12T10:28:44;101963.34;;;21.90;38.83
58843;BME280;44614;54.356;10.100;2023-05-12T10:31:10;101970.41;;;21.56;39.59
58843;BME280;44614;54.356;10.100;2023-05-12T10:33:36;101971.41;;;21.82;44.17
58843;BME280;44614;54.356;10.100;2023-05-12T10:36:01;101944.00;;;21.79;42.79
58843;BME280;44614;54.356;10.100;2023-05-12T10:38:35;101974.63;;;22.06;37.78
58843;BME280;44614;54.356;10.100;2023-05-12T10:41:04;101971.97;;;21.84;39.19
58843;BME280;44614;54.356;10.100;2023-05-12T10:43:40;101983.69;;;21.76;38.99
58843;BME280;44614;54.356;10.100;2023-05-12T10:46:18;101974.94;;;21.67;36.68
58843;BME280;44614;54.356;10.100;2023-05-12T10:49:11;101967.56;;;21.46;38.02
58843;BME280;44614;54.356;10.100;2023-05-12T10:54:09;101971.53;;;22.07;41.50
58843;BME280;44614;54.356;10.100;2023-05-12T10:59:17;101974.19;;;21.82;40.26
58843;BME280;44614;54.356;10.100;2023-05-12T11:02:12;101975.25;;;22.18;37.65
58843;BME280;44614;54.356;10.100;2023-05-12T11:04:48;101978.66;;;21.78;40.17
58843;BME280;44614;54.356;10.100;2023-05-12T11:07:15;101975.75;;;21.62;42.60
58843;BME280;44614;54.356;10.100;2023-05-12T11:09:43;101978.94;;;21.76;41.12
58843;BME280;44614;54.356;10.100;2023-05-12T11:12:10;101972.88;;;21.95;42.37
58843;BME280;44614;54.356;10.100;2023-05-12T11:14:38;101974.22;;;22.45;41.48
58843;BME280;44614;54.356;10.100;2023-05-12T11:17:04;101977.66;;;22.82;39.68
58843;BME280;44614;54.356;10.100;2023-05-12T11:19:30;101975.06;;;22.45;40.17
58843;BME280;44614;54.356;10.100;2023-05-12T11:21:56;101963.88;;;22.40;41.91
58843;BME280;44614;54.356;10.100;2023-05-12T11:24:21;101965.31;;;22.68;42.05
58843;BME280;44614;54.356;10.100;2023-05-12T11:26:47;101970.41;;;23.12;41.03
58843;BME280;44614;54.356;10.100;2023-05-12T11:29:20;101978.56;;;23.14;41.07
58843;BME280;44614;54.356;10.100;2023-05-12T11:31:51;101981.34;;;23.29;39.36
58843;BME280;44614;54.356;10.100;2023-05-12T11:34:21;101971.81;;;23.40;39.40
58843;BME280;44614;54.356;10.100;2023-05-12T11:36:47;101977.94;;;23.63;40.47
58843;BME280;44614;54.356;10.100;2023-05-12T11:39:19;101972.53;;;23.97;40.14
58843;BME280;44614;54.356;10.100;2023-05-12T11:41:45;101974.25;;;23.93;40.10
58843;BME280;44614;54.356;10.100;2023-05-12T11:44:21;101980.22;;;23.40;33.20
58843;BME280;44614;54.356;10.100;2023-05-12T11:46:54;101984.94;;;22.78;38.05
58843;BME280;44614;54.356;10.100;2023-05-12T11:49:20;101984.38;;;22.86;41.24
58843;BME280;44614;54.356;10.100;2023-05-12T11:51:45;101974.00;;;22.67;41.24
58843;BME280;44614;54.356;10.100;2023-05-12T11:54:11;101978.53;;;23.03;40.68
58843;BME280;44614;54.356;10.100;2023-05-12T11:56:37;101972.94;;;23.14;40.46
58843;BME280;44614;54.356;10.100;2023-05-12T11:59:02;101983.00;;;23.30;40.82
58843;BME280;44614;54.356;10.100;2023-05-12T12:01:27;101974.06;;;23.23;39.73
58843;BME280;44614;54.356;10.100;2023-05-12T12:03:53;101979.94;;;23.31;40.65
58843;BME280;44614;54.356;10.100;2023-05-12T12:06:21;101978.22;;;23.81;39.91
58843;BME280;44614;54.356;10.100;2023-05-12T12:11:23;101979.91;;;23.72;37.44
58843;BME280;44614;54.356;10.100;2023-05-12T12:13:52;101976.56;;;23.70;35.21
58843;BME280;44614;54.356;10.100;2023-05-12T12:16:28;101989.19;;;23.22;38.71
58843;BME280;44614;54.356;10.100;2023-05-12T12:18:54;101976.84;;;23.43;37.05
58843;BME280;44614;54.356;10.100;2023-05-12T12:21:21;101968.69;;;23.72;38.88
58843;BME280;44614;54.356;10.100;2023-05-12T12:23:47;101945.03;;;24.04;37.97
58843;BME280;44614;54.356;10.100;2023-05-12T12:26:13;101978.66;;;24.09;38.03
58843;BME280;44614;54.356;10.100;2023-05-12T12:28:45;101953.28;;;24.40;37.91
58843;BME280;44614;54.356;10.100;2023-05-12T12:31:10;101979.16;;;24.81;37.74
58843;BME280;44614;54.356;10.100;2023-05-12T12:33:36;101974.72;;;24.65;37.24
58843;BME280;44614;54.356;10.100;2023-05-12T12:36:01;101975.63;;;24.00;37.72
58843;BME280;44614;54.356;10.100;2023-05-12T12:38:26;101977.97;;;23.27;39.09
58843;BME280;44614;54.356;10.100;2023-05-12T12:40:51;101983.03;;;22.99;38.15
58843;BME280;44614;54.356;10.100;2023-05-12T12:43:17;101984.72;;;23.10;39.34
58843;BME280;44614;54.356;10.100;2023-05-12T12:45:42;101979.78;;;24.13;37.94